Weather at Oesman Sadik Airport

Public forecast

Using degrees Celsius for public forecast. Weather courtesy of forecast.io.

Closest aviation weather report (METAR) to Oesman Sadik Airport

Report is more than 6 hours old.

Closest report is Frans Kaisiepo Airport, 517.7 nm (958.8 km) E.

2023/01/26 09:00 (retrieved 13 hours ago)

WABB 260900Z 02004KT 020V260 9999 SCT018 28/25 Q1005 NOSIG

Closest aviation forecast (TAF) to Oesman Sadik Airport

Forecast is more than 6 hours old.

Closest forecast is Soroako Airport, 386.0 nm (714.9 km) WSW.

2023/01/26 12:50 (retrieved 9 hours ago)

TAF WAWS 261100Z 2612/2624 09004KT 8000 SCT018